• Join FlightAware (Why Join?)
  • Login
  • US Flag 
09:38AM EST


 

Airport Tracker/Info


-or-


 

Live Flight TrackerFlight Track Log ✈ SWA1731 ✈ 25-Jun-2013 ✈ KATL - KLAX

Flight Track Log - Related Links

Times and Time Zones

All times are in EDT time to prevent confusion due to time zone crossing. See the SWA1731 flight status page for this flight to view local times or setup timezone preferences in your user account.

Time Position Orientation Groundspeed Altitude Reporting Facility
EDT Latitude Longitude Course Direction KTS MPH feet Rate Location/Type
03:08PM 33.6500 -84.4500 252° West 162 186 2,000  Level Atlanta TRACON
03:09PM 33.6500 -84.5167 270° West 235 270 3,400 2,100 Climbing Atlanta TRACON
03:10PM 33.6667 -84.6000 284° West 267 307 6,300 2,820 Climbing Atlanta TRACON
03:11PM 33.6833 -84.7000 281° West 275 316 9,200 2,220 Climbing Atlanta TRACON
03:13PM 33.6617 -84.9322 264° West 332 382 13,600 2,040 Climbing Atlanta Center
03:14PM 33.7967 -84.6285 252° West  Level FlightAware Approximate
03:14PM 33.6544 -85.0569 266° West 362 417 15,800  Level Atlanta Center
03:15PM 33.6386 -85.1817 261° West 385 443 18,100 2,280 Climbing Atlanta Center
03:16PM 33.6500 -85.3164 276° West 396 456 20,400 2,160 Climbing Atlanta Center
03:17PM 33.6756 -85.4467 283° West 405 466 22,500 1,560 Climbing Atlanta Center
03:18PM 33.6969 -85.5819 281° West 414 476 23,600 1,260 Climbing Atlanta Center
03:19PM 33.7203 -85.7072 283° West 420 483 25,100 1,560 Climbing Atlanta Center
03:20PM 33.7475 -85.8525 283° West 420 483 26,800 1,560 Climbing Atlanta Center
03:21PM 33.7683 -85.9981 280° West 426 490 28,300 1,620 Climbing Atlanta Center
03:22PM 33.7950 -86.1436 282° West 437 503 30,100 1,320 Climbing Atlanta Center
03:23PM 33.8194 -86.2917 281° West 442 509 31,000 420 Climbing Atlanta Center
03:24PM 33.8439 -86.4350 282° West 447 514 31,000  Level Atlanta Center
03:25PM 33.8703 -86.5808 282° West 447 514 31,000 300 Level Atlanta Center
03:26PM 33.8944 -86.7267 281° West 447 514 31,600 1,200 Climbing Atlanta Center
03:28PM 33.9350 -86.9872 281° West 477 549 34,500 1,560 Climbing Memphis Center
03:29PM 33.9575 -87.1267 281° West 447 514 36,000 720 Climbing Memphis Center
03:30PM 33.9861 -87.2708 283° West 420 483 36,000  Level Memphis Center
03:31PM 34.0042 -87.4131 279° West 412 474 36,000  Level Memphis Center
03:32PM 34.0133 -87.5381 275° West 422 486 36,000  Level Memphis Center
03:33PM 34.0247 -87.6781 276° West 422 486 36,000  Level Memphis Center
03:34PM 34.0444 -87.8203 280° West 422 486 36,000  Level Memphis Center
03:35PM 34.0661 -87.9600 281° West 428 493 36,000  Level Memphis Center
03:36PM 34.0917 -88.0997 282° West 428 493 36,000  Level Memphis Center
03:37PM 34.1131 -88.2572 279° West 433 498 36,000  Level Memphis Center
03:38PM 34.1364 -88.3997 281° West 433 498 36,000  Level Memphis Center
03:39PM 34.1594 -88.5422 281° West 433 498 36,000  Level Memphis Center
03:40PM 34.1822 -88.6875 281° West 433 498 36,000  Level Memphis Center
03:41PM 34.2006 -88.8050 281° West 438 504 36,000  Level Memphis Center
03:42PM 34.2256 -88.9706 280° West 429 494 36,000  Level Memphis Center
03:43PM 34.2478 -89.1158 281° West 434 499 36,000  Level Memphis Center
03:44PM 34.2681 -89.2614 280° West 434 499 36,000  Level Memphis Center
03:45PM 34.2922 -89.4069 281° West 444 511 36,000  Level Memphis Center
03:46PM 34.3097 -89.5400 279° West 444 511 36,000  Level Memphis Center
03:47PM 34.3317 -89.6856 280° West 444 511 36,000  Level Memphis Center
03:48PM 34.3531 -89.8339 280° West 444 511 36,000  Level Memphis Center
03:49PM 34.3744 -89.9847 280° West 450 518 36,000  Level Memphis Center
03:50PM 34.4000 -90.1483 281° West 450 518 36,000  Level Memphis Center
03:51PM 34.4231 -90.2992 281° West 450 518 36,000  Level Memphis Center
03:52PM 34.4439 -90.4478 280° West 455 524 36,000  Level Memphis Center
03:53PM 34.4647 -90.5989 280° West 455 524 36,000  Level Memphis Center
03:54PM 34.4853 -90.7453 280° West 448 516 36,000  Level Memphis Center
03:55PM 34.5075 -90.8939 280° West 448 516 36,000  Level Memphis Center
03:56PM 34.5278 -91.0428 279° West 448 516 36,000  Level Memphis Center
03:57PM 34.5456 -91.1767 279° West 448 516 36,000  Level Memphis Center
03:58PM 34.5656 -91.3281 279° West 453 521 36,000  Level Memphis Center
03:59PM 34.5850 -91.4747 279° West 453 521 36,000  Level Memphis Center
04:00PM 34.6025 -91.6239 278° West 448 516 36,000 780 Level Memphis Center
04:01PM 34.6239 -91.7653 280° West 438 504 37,600 960 Climbing Memphis Center
04:02PM 34.6431 -91.9097 279° West 433 498 38,000 180 Climbing Memphis Center
04:03PM 34.6600 -92.0589 278° West 438 504 38,000  Level Memphis Center
04:04PM 34.6786 -92.2058 279° West 443 510 38,000  Level Memphis Center
04:05PM 34.6931 -92.3525 277° West 448 516 38,000  Level Memphis Center
04:06PM 34.7072 -92.5119 276° West 448 516 38,000  Level Memphis Center
04:07PM 34.7211 -92.6589 277° West 448 516 38,000  Level Memphis Center
04:08PM 34.7350 -92.8058 277° West 448 516 38,000  Level Memphis Center
04:09PM 34.7469 -92.9503 276° West 443 510 38,000  Level Memphis Center
04:10PM 34.7606 -93.0947 277° West 443 510 38,000  Level Memphis Center
04:11PM 34.7739 -93.2419 276° West 443 510 38,000  Level Memphis Center
04:12PM 34.7872 -93.3839 277° West 443 510 38,000  Level Memphis Center
04:13PM 34.8022 -93.5286 277° West 438 504 38,000  Level Memphis Center
04:14PM 34.8131 -93.6731 275° West 438 504 38,000  Level Memphis Center
04:15PM 34.8281 -93.8206 277° West 438 504 38,000  Level Memphis Center
04:16PM 34.8383 -93.9650 275° West 438 504 38,000  Level Memphis Center
04:17PM 34.8489 -94.1072 275° West 438 504 38,000  Level Memphis Center
04:19PM 34.8761 -94.4094 276° West 447 514 38,000  Level Fort Worth Center
04:20PM 34.8878 -94.5558 276° West 441 507 38,000  Level Fort Worth Center
04:21PM 34.8994 -94.7072 275° West 446 513 38,000  Level Fort Worth Center
04:22PM 34.9108 -94.8536 275° West 446 513 38,000  Level Fort Worth Center
04:23PM 34.9222 -95.0003 275° West 437 503 38,000  Level Fort Worth Center
04:24PM 34.9333 -95.1494 275° West 444 511 38,000  Level Fort Worth Center
04:25PM 34.9442 -95.2908 275° West 439 505 38,000  Level Fort Worth Center
04:26PM 34.9528 -95.4375 274° West 433 498 38,000  Level Fort Worth Center
04:27PM 34.9653 -95.5842 276° West 433 498 38,000  Level Fort Worth Center
04:28PM 34.9736 -95.7286 274° West 438 504 38,000  Level Fort Worth Center
04:29PM 34.9839 -95.8728 275° West 438 504 38,000  Level Fort Worth Center
04:30PM 34.9875 -96.0019 272° West 438 504 38,000  Level Fort Worth Center
04:31PM 34.9972 -96.1436 275° West 438 504 38,000  Level Fort Worth Center
04:32PM 35.0069 -96.2881 275° West 438 504 38,000  Level Fort Worth Center
04:33PM 35.0167 -96.4272 275° West 428 493 38,000  Level Fort Worth Center
04:34PM 35.0239 -96.5667 274° West 423 487 38,000  Level Fort Worth Center
04:35PM 35.0331 -96.7036 275° West 418 481 38,000  Level Fort Worth Center
04:36PM 35.0400 -96.8431 274° West 418 481 38,000  Level Fort Worth Center
04:37PM 35.0489 -96.9850 274° West 418 481 38,000  Level Fort Worth Center
04:38PM 35.0575 -97.1269 274° West 424 488 38,000  Level Fort Worth Center
04:39PM 35.0642 -97.2689 273° West 424 488 38,000  Level Fort Worth Center
04:40PM 35.0683 -97.4136 272° West 424 488 38,000  Level Fort Worth Center
04:41PM 35.0744 -97.5606 273° West 424 488 38,000  Level Fort Worth Center
04:42PM 35.0825 -97.7128 274° West 424 488 38,000  Level Fort Worth Center
04:43PM 35.0883 -97.8575 273° West 424 488 38,000  Level Fort Worth Center
04:44PM 35.0919 -98.0022 272° West 424 488 38,000  Level Fort Worth Center
04:45PM 35.0975 -98.1469 273° West 424 488 38,000  Level Fort Worth Center
04:46PM 35.1028 -98.2892 273° West 424 488 38,000  Level Fort Worth Center
04:47PM 35.1081 -98.4339 273° West 424 488 38,000  Level Fort Worth Center
04:48PM 35.1111 -98.5581 272° West 418 481 38,000  Level Fort Worth Center
04:49PM 35.1158 -98.7081 272° West 418 481 38,000  Level Fort Worth Center
04:50PM 35.1183 -98.8553 271° West 424 488 38,000  Level Fort Worth Center
04:51PM 35.1231 -98.9897 272° West 419 482 38,000  Level Fort Worth Center
04:52PM 35.1253 -99.1372 271° West 419 482 38,000  Level Fort Worth Center
04:53PM 35.1294 -99.2717 272° West 419 482 38,000  Level Fort Worth Center
04:54PM 35.1317 -99.4139 271° West 419 482 38,000  Level Fort Worth Center
04:55PM 35.1364 -99.5503 272° West 413 475 38,000  Level Albuquerque Center
04:56PM 35.1383 -99.6908 271° West 412 474 38,000  Level Albuquerque Center
04:57PM 35.1428 -99.8603 272° West 414 476 38,000  Level Albuquerque Center
04:58PM 35.1436 -99.9986 270° West 409 471 38,000  Level Albuquerque Center
05:00PM 35.1458 -100.1378 271° West 409 471 38,000  Level Albuquerque Center
05:01PM 35.1489 -100.2775 272° West 409 471 38,000  Level Albuquerque Center
05:02PM 35.1500 -100.4242 271° West 410 472 38,000  Level Albuquerque Center
05:03PM 35.1522 -100.5633 271° West 411 473 38,000  Level Albuquerque Center
05:04PM 35.1544 -100.7039 271° West 413 475 38,000  Level Albuquerque Center
05:05PM 35.1556 -100.8456 271° West 417 480 38,000  Level Albuquerque Center
05:06PM 35.1556 -100.9842 270° West 412 474 38,000  Level Albuquerque Center
05:07PM 35.1567 -101.1233 271° West 411 473 38,000  Level Albuquerque Center
05:08PM 35.1575 -101.2917 270° West 412 474 38,000  Level Albuquerque Center
05:09PM 35.1633 -101.4303 273° West 416 479 38,000  Level Albuquerque Center
05:10PM 35.1628 -101.5681 270° West 409 471 38,000  Level Albuquerque Center
05:11PM 35.1594 -101.7175 268° West 408 470 38,000  Level Albuquerque Center
05:12PM 35.1608 -101.8589 271° West 410 472 38,000  Level Albuquerque Center
05:13PM 35.1589 -102.0011 269° West 413 475 38,000  Level Albuquerque Center
05:14PM 35.1583 -102.1414 270° West 414 476 38,000  Level Albuquerque Center
05:15PM 35.1592 -102.2825 270° West 415 478 38,000  Level Albuquerque Center
05:16PM 35.1581 -102.4233 269° West 416 479 38,000  Level Albuquerque Center
05:17PM 35.1586 -102.5636 270° West 414 476 38,000  Level Albuquerque Center
05:18PM 35.1569 -102.7303 269° West 411 473 38,000  Level Albuquerque Center
05:19PM 35.1567 -102.8689 270° West 409 471 38,000  Level Albuquerque Center
05:20PM 35.1553 -103.0100 269° West 405 466 38,000  Level Albuquerque Center
05:21PM 35.1544 -103.1486 270° West 404 465 38,000  Level Albuquerque Center
05:22PM 35.1533 -103.2861 269° West 402 463 38,000  Level Albuquerque Center
05:23PM 35.1514 -103.4239 269° West 402 463 38,000  Level Albuquerque Center
05:24PM 35.1494 -103.5606 269° West 401 461 38,000  Level Albuquerque Center
05:25PM 35.1475 -103.6992 269° West 403 464 38,000  Level Albuquerque Center
05:26PM 35.1450 -103.8356 269° West 400 460 38,000  Level Albuquerque Center
05:27PM 35.1433 -103.9872 269° West 406 467 38,000  Level Albuquerque Center
05:28PM 35.1408 -104.1256 269° West 409 471 38,000  Level Albuquerque Center
05:29PM 35.1386 -104.2656 269° West 412 474 38,000  Level Albuquerque Center
05:30PM 35.1361 -104.4053 269° West 413 475 38,000  Level Albuquerque Center
05:31PM 35.1317 -104.5703 268° West 407 468 38,000  Level Albuquerque Center
05:32PM 35.1269 -104.7108 268° West 411 473 38,000  Level Albuquerque Center
05:33PM 35.1242 -104.8492 269° West 407 468 38,000  Level Albuquerque Center
05:35PM 35.1217 -104.9892 269° West 408 470 38,000  Level Albuquerque Center
05:36PM 35.1181 -105.1264 268° West 404 465 38,000  Level Albuquerque Center
05:37PM 35.1147 -105.2650 268° West 403 464 38,000  Level Albuquerque Center
05:38PM 35.1103 -105.4033 268° West 404 465 38,000  Level Albuquerque Center
05:39PM 35.1064 -105.5422 268° West 405 466 38,000  Level Albuquerque Center
05:40PM 35.1011 -105.7044 268° West 406 467 38,000  Level Albuquerque Center
05:41PM 35.0978 -105.8453 268° West 410 472 38,000  Level Albuquerque Center
05:42PM 35.0933 -105.9847 268° West 411 473 38,000  Level Albuquerque Center
05:43PM 35.0869 -106.1242 267° West 411 473 38,000  Level Albuquerque Center
05:44PM 35.0836 -106.2656 268° West 416 479 38,000  Level Albuquerque Center
05:45PM 35.0778 -106.4078 267° West 418 481 38,000  Level Albuquerque Center
05:46PM 35.0717 -106.5517 267° West 416 479 38,000  Level Albuquerque Center
05:47PM 35.0658 -106.6936 267° West 418 481 38,000  Level Albuquerque Center
05:48PM 35.0614 -106.8325 268° West 411 473 38,000  Level Albuquerque Center
05:49PM 35.0550 -107.0000 267° West 408 470 38,000  Level Albuquerque Center
05:50PM 35.0489 -107.1400 267° West 414 476 38,000  Level Albuquerque Center
05:51PM 35.0431 -107.2617 267° West 417 480 38,000  Level Albuquerque Center
05:52PM 35.0350 -107.4311 267° West 417 480 38,000  Level Albuquerque Center
05:53PM 35.0286 -107.5742 267° West 422 486 38,000  Level Albuquerque Center
05:54PM 35.0228 -107.7156 267° West 422 486 38,000  Level Albuquerque Center
05:55PM 35.0147 -107.8581 266° West 421 484 38,000  Level Albuquerque Center
05:56PM 35.0072 -107.9975 266° West 417 480 38,000  Level Albuquerque Center
05:57PM 35.0006 -108.1372 267° West 414 476 38,000  Level Albuquerque Center
05:58PM 34.9956 -108.2786 268° West 416 479 38,000  Level Albuquerque Center
05:59PM 34.9856 -108.4467 266° West 416 479 38,000  Level Albuquerque Center
06:00PM 34.9792 -108.5858 267° West 413 475 38,000  Level Albuquerque Center
06:01PM 34.9717 -108.7281 266° West 418 481 38,000  Level Albuquerque Center
06:02PM 34.9631 -108.8689 266° West 417 480 38,000  Level Albuquerque Center
06:03PM 34.9547 -109.0100 266° West 418 481 38,000  Level Albuquerque Center
06:04PM 34.9467 -109.1525 266° West 421 484 38,000  Level Albuquerque Center
06:05PM 34.9383 -109.2944 266° West 420 483 38,000  Level Albuquerque Center
06:06PM 34.9272 -109.4639 265° West 421 484 38,000 -60 Level Albuquerque Center
06:07PM 34.9194 -109.5869 266° West 419 482 37,900  Descending Albuquerque Center
06:08PM 34.9089 -109.7542 266° West 418 481 38,000  Climbing Albuquerque Center
06:10PM 34.8994 -109.8942 265° West 420 483 38,000  Level Albuquerque Center
06:11PM 34.8903 -110.0358 266° West 422 486 38,000  Level Albuquerque Center
06:12PM 34.8806 -110.1922 266° West 422 486 38,000  Level Albuquerque Center
06:13PM 34.8714 -110.3336 266° West 421 484 38,000  Level Albuquerque Center
06:14PM 34.8561 -110.4744 263° West 422 486 38,000  Level Albuquerque Center
06:15PM 34.8389 -110.6156 262° West 423 487 38,000  Level Albuquerque Center
06:16PM 34.8214 -110.7550 261° West 421 484 38,000  Level Albuquerque Center
06:17PM 34.8053 -110.8939 262° West 419 482 38,000  Level Albuquerque Center
06:18PM 34.7842 -111.0603 261° West 417 480 38,000  Level Albuquerque Center
06:19PM 34.7675 -111.2000 262° West 419 482 38,000  Level Albuquerque Center
06:20PM 34.7497 -111.3400 261° West 420 483 38,000  Level Albuquerque Center
06:21PM 34.7319 -111.4817 261° West 425 489 38,000  Level Albuquerque Center
06:22PM 34.7142 -111.6233 261° West 426 490 38,000  Level Albuquerque Center
06:23PM 34.6964 -111.7656 261° West 428 493 38,000  Level Albuquerque Center
06:24PM 34.6739 -111.9342 261° West 426 490 38,000  Level Albuquerque Center
06:25PM 34.6553 -112.0750 261° West 426 490 38,000  Level Albuquerque Center
06:26PM 34.6367 -112.2158 261° West 426 490 38,000  Level Albuquerque Center
06:27PM 34.6181 -112.3578 261° West 426 490 38,000  Level Albuquerque Center
06:28PM 34.5994 -112.4992 261° West 425 489 38,000  Level Albuquerque Center
06:29PM 34.5806 -112.6394 261° West 423 487 38,000  Level Albuquerque Center
06:30PM 34.5606 -112.7803 260° West 424 488 38,000  Level Albuquerque Center
06:31PM 34.5381 -112.9483 261° West 423 487 38,000  Level Albuquerque Center
06:32PM 34.5183 -113.0878 260° West 422 486 38,000  Level Albuquerque Center
06:33PM 34.4989 -113.2289 261° West 424 488 38,000  Level Albuquerque Center
06:34PM 34.4781 -113.3692 260° West 424 488 38,000  Level Albuquerque Center
06:35PM 34.4592 -113.5106 261° West 426 490 38,000  Level Albuquerque Center
06:36PM 34.4375 -113.6531 260° West 422 486 38,000  Level Albuquerque Center
06:37PM 34.4161 -113.7956 260° West 427 491 38,000  Level Albuquerque Center
06:38PM 34.3914 -113.9642 260° West 425 489 38,000  Level Albuquerque Center
06:39PM 34.3708 -114.1053 260° West 425 489 38,000  Level Albuquerque Center
06:40PM 34.3514 -114.2469 261° West 426 490 38,000  Level Albuquerque Center
06:41PM 34.3347 -114.3886 262° West 425 489 38,000  Level Albuquerque Center
06:42PM 34.3217 -114.4983 262° West 428 493 38,000  Level Los Angeles Center
06:43PM 34.3031 -114.6400 261° West 428 493 38,000  Level Los Angeles Center
06:44PM 34.2844 -114.7836 261° West 433 498 38,000  Level Los Angeles Center
06:45PM 34.2658 -114.9275 261° West 434 499 38,000  Level Los Angeles Center
06:46PM 34.2419 -115.1014 261° West 436 502 38,000  Level Los Angeles Center
06:47PM 34.2228 -115.2475 261° West 440 506 38,000  Level Los Angeles Center
06:48PM 34.2036 -115.3922 261° West 439 505 38,000  Level Los Angeles Center
06:49PM 34.1825 -115.5381 260° West 441 507 38,000  Level Los Angeles Center
06:50PM 34.1622 -115.6797 260° West 434 499 38,000  Level Los Angeles Center
06:52PM 34.1428 -115.8222 261° West 432 497 38,000 -960 Level Los Angeles Center
06:53PM 34.1192 -115.9950 261° West 435 501 36,100 -2,160 Descending Los Angeles Center
06:54PM 34.0975 -116.1394 260° West 438 504 33,600 -2,280 Descending Los Angeles Center
06:55PM 34.0767 -116.2878 260° West 447 514 31,400 -2,520 Descending Los Angeles Center
06:56PM 34.0550 -116.4258 259° West 429 494 28,500 -2,520 Descending Los Angeles Center
06:57PM 34.0378 -116.5606 261° West 415 478 26,300 -2,340 Descending Los Angeles Center
06:58PM 34.0133 -116.7161 259° West 402 463 23,700 -2,280 Descending Los Angeles Center
06:59PM 33.9947 -116.8419 260° West 391 450 21,600 -2,040 Descending Los Angeles Center
07:00PM 33.9764 -116.9631 260° West 380 437 19,500 -1,860 Descending Los Angeles Center
07:01PM 33.9572 -117.0817 259° West 369 425 17,700 -1,500 Descending Los Angeles Center
07:02PM 33.9458 -117.1889 263° West 342 394 16,500 -1,560 Descending Los Angeles Center
07:03PM 33.9333 -117.3333 264° West 302 348 14,200 -1,680 Descending Southern California TRACON
07:04PM 33.9500 -117.4167 284° West 299 344 12,800 -1,260 Descending Southern California TRACON
07:05PM 33.9833 -117.5167 292° West 300 345 11,700 -1,260 Descending Southern California TRACON
07:06PM 34.0167 -117.6000 296° West 289 333 10,300 -900 Descending Southern California TRACON
07:07PM 34.0167 -117.7000 270° West 279 321 9,900 -780 Descending Southern California TRACON
07:08PM 34.0167 -117.7833 270° West 271 312 8,800 -1,200 Descending Southern California TRACON
07:09PM 34.0000 -117.8667 256° West 260 299 7,600 -1,200 Descending Southern California TRACON
07:10PM 34.0000 -117.9500 270° West 249 287 6,500 -1,020 Descending Southern California TRACON
07:11PM 33.9833 -118.0333 256° West 243 280 5,600 -960 Descending Southern California TRACON
07:12PM 33.9833 -118.1167 270° West 238 274 4,600 -1,140 Descending Southern California TRACON
07:13PM 33.9667 -118.2000 256° West 216 249 3,400 -1,140 Descending Southern California TRACON
07:14PM 33.9667 -118.2667 270° West 194 223 2,400 -960 Descending Southern California TRACON
07:15PM 33.9667 -118.3167 270° West 153 176 1,500 -780 Descending Southern California TRACON
07:16PM 33.9500 -118.3667 248° West 138 159 900 -420 Descending Southern California TRACON
07:18PM 33.8842 -118.4439 224° Southwest 203 234 500 -300 Descending Los Angeles Center